createdAt,value
2023-04-05T00:01:50.071Z,102375.41
2023-04-05T00:06:57.561Z,102388.06
2023-04-05T00:12:01.360Z,102382.78
2023-04-05T00:17:05.118Z,102381.44
2023-04-05T00:22:10.850Z,102382.22
2023-04-05T00:27:14.561Z,102378.19
2023-04-05T00:32:18.339Z,102369.91
2023-04-05T00:37:24.013Z,102374.38
2023-04-05T00:42:27.754Z,102375.63
2023-04-05T00:47:31.569Z,102368.56
2023-04-05T00:52:38.067Z,102368.41
2023-04-05T00:57:42.232Z,102359.63
2023-04-05T01:02:53.112Z,102363.03
2023-04-05T01:08:09.057Z,102365.37
2023-04-05T01:13:12.856Z,102351.56
2023-04-05T01:18:16.622Z,102349.06
2023-04-05T01:23:38.734Z,102346.53
2023-04-05T01:28:58.267Z,102343.28
2023-04-05T01:34:09.228Z,102340.59
2023-04-05T01:39:15.882Z,102335.53
2023-04-05T01:44:19.613Z,102340.84
2023-04-05T01:49:25.499Z,102344.66
2023-04-05T01:54:29.316Z,102339.47
2023-04-05T01:59:33.342Z,102333.62
2023-04-05T02:04:38.739Z,102332.28
2023-04-05T02:09:42.536Z,102324.31
2023-04-05T02:14:46.314Z,102316.53
2023-04-05T02:19:53.036Z,102313.84
2023-04-05T02:24:56.956Z,102319.28
2023-04-05T02:30:00.630Z,102312.69
2023-04-05T02:35:06.716Z,102320.28
2023-04-05T02:40:14.993Z,102308.72
2023-04-05T02:45:19.635Z,102303.63
2023-04-05T02:50:25.396Z,102307.41
2023-04-05T02:55:30.903Z,102299.62
2023-04-05T03:00:34.792Z,102298.09
2023-04-05T03:05:42.249Z,102296.44
2023-04-05T03:10:47.503Z,102296.34
2023-04-05T03:15:54.924Z,102283.09
2023-04-05T03:21:01.184Z,102282.22
2023-04-05T03:26:05.334Z,102282.81
2023-04-05T03:31:11.915Z,102276.97
2023-04-05T03:36:19.880Z,102269.59
2023-04-05T03:41:26.438Z,102264.66
2023-04-05T03:46:30.372Z,102253.09
2023-04-05T03:51:35.563Z,102257.16
2023-04-05T03:56:39.424Z,102264.53
2023-04-05T04:01:44.859Z,102255.81
2023-04-05T04:06:50.973Z,102266.53
2023-04-05T04:11:56.800Z,102256.13
2023-04-05T04:17:01.027Z,102260.66
2023-04-05T04:22:10.089Z,102260.19
2023-04-05T04:27:17.094Z,102265.62
2023-04-05T04:32:26.776Z,102258.69
2023-04-05T04:37:33.304Z,102258.41
2023-04-05T04:42:39.148Z,102259.34
2023-04-05T04:47:43.727Z,102261.16
2023-04-05T04:52:52.241Z,102253.03
2023-04-05T04:57:56.985Z,102260.37
2023-04-05T05:03:00.777Z,102255.59
2023-04-05T05:08:06.262Z,102252.72
2023-04-05T05:13:11.148Z,102250.94
2023-04-05T05:18:14.961Z,102252.25
2023-04-05T05:23:21.470Z,102253.16
2023-04-05T05:28:25.989Z,102248.66
2023-04-05T05:33:29.709Z,102263.38
2023-04-05T05:38:34.785Z,102262.47
2023-04-05T05:43:38.541Z,102263.69
2023-04-05T05:48:42.651Z,102255.91
2023-04-05T05:53:48.219Z,102254.06
2023-04-05T05:58:52.058Z,102260.53
2023-04-05T06:03:56.003Z,102260.97
2023-04-05T06:09:01.179Z,102265.66
2023-04-05T06:14:04.952Z,102263.41
2023-04-05T06:19:08.703Z,102269.09
2023-04-05T06:24:13.815Z,102262.16
2023-04-05T06:29:17.565Z,102261.03
2023-04-05T06:34:21.312Z,102267.75
2023-04-05T06:39:26.460Z,102262.28
2023-04-05T06:44:30.149Z,102257.09
2023-04-05T06:49:33.850Z,102267.84
2023-04-05T06:54:39.994Z,102258.62
2023-04-05T06:59:43.699Z,102243.00
2023-04-05T07:04:48.409Z,102248.91
2023-04-05T07:09:53.646Z,102245.16
2023-04-05T07:14:57.366Z,102243.06
2023-04-05T07:20:01.175Z,102244.56
2023-04-05T07:25:09.576Z,102250.16
2023-04-05T07:30:14.419Z,102250.75
2023-04-05T07:35:18.241Z,102259.12
2023-04-05T07:40:23.300Z,102242.78
2023-04-05T07:45:27.323Z,102241.78
2023-04-05T07:50:30.992Z,102248.34
2023-04-05T07:55:39.071Z,102246.09
2023-04-05T08:00:43.066Z,102246.84
2023-04-05T08:05:46.990Z,102250.03
2023-04-05T08:10:52.275Z,102249.88
2023-04-05T08:15:57.298Z,102244.78
2023-04-05T08:21:01.128Z,102253.06
2023-04-05T08:26:07.795Z,102244.34
2023-04-05T08:31:13.720Z,102240.50
2023-04-05T08:36:17.694Z,102247.22
2023-04-05T08:41:24.538Z,102236.53
2023-04-05T08:46:28.683Z,102234.47
2023-04-05T08:51:33.377Z,102229.78
2023-04-05T08:56:40.280Z,102230.31
2023-04-05T09:01:48.959Z,102227.38
2023-04-05T09:06:53.579Z,102225.47
2023-04-05T09:11:58.695Z,102230.06
2023-04-05T09:17:03.981Z,102225.59
2023-04-05T09:22:09.762Z,102219.41
2023-04-05T09:27:16.100Z,102227.78
2023-04-05T09:32:21.359Z,102211.59
2023-04-05T09:37:25.338Z,102215.78
2023-04-05T09:42:35.286Z,102208.81
2023-04-05T09:47:39.027Z,102204.34
2023-04-05T09:52:44.278Z,102199.53
2023-04-05T09:57:49.421Z,102196.66
2023-04-05T10:02:57.393Z,102192.37
2023-04-05T10:08:02.196Z,102186.56
2023-04-05T10:13:07.788Z,102187.56
2023-04-05T10:18:14.911Z,102181.81
2023-04-05T10:23:23.792Z,102176.06
2023-04-05T10:28:32.839Z,102180.19
2023-04-05T10:33:42.496Z,102169.13
2023-04-05T10:39:00.012Z,102170.81
2023-04-05T10:44:18.475Z,102167.97
2023-04-05T10:49:35.485Z,102158.19
2023-04-05T10:54:39.716Z,102165.87
2023-04-05T10:59:47.691Z,102156.75
2023-04-05T11:04:56.169Z,102144.50
2023-04-05T11:10:02.612Z,102139.06
2023-04-05T11:15:33.080Z,102132.25
2023-04-05T11:20:44.737Z,102137.31
2023-04-05T11:25:51.940Z,102130.63
2023-04-05T11:30:59.085Z,102130.88
2023-04-05T11:36:03.957Z,102134.84
2023-04-05T11:41:13.192Z,102124.44
2023-04-05T11:46:19.153Z,102110.91
2023-04-05T11:51:25.497Z,102110.88
2023-04-05T11:56:29.223Z,102108.19
2023-04-05T12:01:34.322Z,102093.28
2023-04-05T12:06:38.073Z,102077.69
2023-04-05T12:11:42.001Z,102073.72
2023-04-05T12:16:51.285Z,102076.16
2023-04-05T12:21:55.356Z,102072.62
2023-04-05T12:27:00.678Z,102064.84
2023-04-05T12:32:06.680Z,102066.81
2023-04-05T12:37:11.539Z,102054.66
2023-04-05T12:42:18.788Z,102043.31
2023-04-05T12:47:23.996Z,102041.66
2023-04-05T12:52:28.472Z,102031.47
2023-04-05T12:57:32.967Z,102029.00
2023-04-05T13:02:38.138Z,102028.50
2023-04-05T13:07:42.043Z,102023.84
2023-04-05T13:12:46.567Z,102012.38
2023-04-05T13:17:53.348Z,102010.59
2023-04-05T13:22:57.220Z,101997.94
2023-04-05T13:28:00.917Z,101992.41
2023-04-05T13:33:06.095Z,101976.72
2023-04-05T13:38:09.954Z,101982.97
2023-04-05T13:43:14.472Z,101976.16
2023-04-05T13:48:19.511Z,101975.31
2023-04-05T13:53:23.472Z,101972.78
2023-04-05T13:58:27.186Z,101956.91
2023-04-05T14:03:32.460Z,101961.38
2023-04-05T14:08:36.249Z,101943.72
2023-04-05T14:13:40.411Z,101937.50
2023-04-05T14:18:45.576Z,101934.84
2023-04-05T14:23:50.487Z,101931.31
2023-04-05T14:28:54.707Z,101926.84
2023-04-05T14:34:00.772Z,101931.31
2023-04-05T14:39:04.830Z,101920.72
2023-04-05T14:44:08.650Z,101922.50
2023-04-05T14:49:13.809Z,101914.50
2023-04-05T14:54:18.515Z,101898.69
2023-04-05T14:59:22.443Z,101888.97
2023-04-05T15:04:27.790Z,101888.94
2023-04-05T15:09:31.798Z,101876.56
2023-04-05T15:14:35.611Z,101878.13
2023-04-05T15:19:40.964Z,101869.94
2023-04-05T15:24:44.856Z,101873.81
2023-04-05T15:29:48.699Z,101865.00
2023-04-05T15:34:53.927Z,101858.03
2023-04-05T15:39:57.932Z,101860.56
2023-04-05T15:45:01.912Z,101850.69
2023-04-05T15:50:08.198Z,101849.91
2023-04-05T15:55:12.036Z,101846.50
2023-04-05T16:00:16.832Z,101838.34
2023-04-05T16:05:22.236Z,101840.88
2023-04-05T16:10:26.454Z,101836.25
2023-04-05T16:15:30.566Z,101830.19
2023-04-05T16:20:36.301Z,101826.50
2023-04-05T16:25:40.176Z,101829.53
2023-04-05T16:30:47.132Z,101829.91
2023-04-05T16:35:52.922Z,101822.81
2023-04-05T16:40:56.880Z,101829.66
2023-04-05T16:46:00.931Z,101825.38
2023-04-05T16:51:07.239Z,101832.78
2023-04-05T16:56:11.318Z,101830.13
2023-04-05T17:01:15.773Z,101822.69
2023-04-05T17:06:20.960Z,101828.50
2023-04-05T17:11:24.849Z,101830.37
2023-04-05T17:16:28.813Z,101820.56
2023-04-05T17:21:35.388Z,101824.72
2023-04-05T17:26:39.212Z,101824.38
2023-04-05T17:31:44.406Z,101821.91
2023-04-05T17:36:49.787Z,101835.44
2023-04-05T17:41:55.898Z,101835.12
2023-04-05T17:47:08.559Z,101831.75
2023-04-05T17:52:14.905Z,101829.87
2023-04-05T17:57:21.080Z,101837.69
2023-04-05T18:02:24.979Z,101831.75
2023-04-05T18:07:30.409Z,101842.16
2023-04-05T18:12:34.324Z,101840.97
2023-04-05T18:17:38.410Z,101841.78
2023-04-05T18:22:43.807Z,101847.28
2023-04-05T18:27:47.721Z,101839.28
2023-04-05T18:32:51.932Z,101841.50
2023-04-05T18:37:57.127Z,101846.22
2023-04-05T18:43:01.151Z,101852.12
2023-04-05T18:48:05.527Z,101853.09
2023-04-05T18:53:11.023Z,101851.34
2023-04-05T18:58:14.873Z,101850.53
2023-04-05T19:03:18.821Z,101859.69
2023-04-05T19:08:26.650Z,101866.31
2023-04-05T19:13:30.480Z,101865.19
2023-04-05T19:18:34.343Z,101867.44
2023-04-05T19:23:39.760Z,101873.91
2023-04-05T19:28:43.626Z,101874.28
2023-04-05T19:33:47.499Z,101876.12
2023-04-05T19:38:52.716Z,101875.16
2023-04-05T19:43:57.298Z,101870.00
2023-04-05T19:49:11.008Z,101868.25
2023-04-05T19:54:19.336Z,101870.06
2023-04-05T19:59:30.030Z,101856.25
2023-04-05T20:04:38.905Z,101855.28
2023-04-05T20:09:45.098Z,101856.09
2023-04-05T20:14:49.109Z,101853.16
2023-04-05T20:19:57.503Z,101846.28
2023-04-05T20:25:02.751Z,101845.03
2023-04-05T20:30:11.721Z,101847.72
2023-04-05T20:35:31.983Z,101840.50
2023-04-05T20:40:37.158Z,101833.37
2023-04-05T20:45:41.925Z,101836.28
2023-04-05T20:50:45.844Z,101827.38
2023-04-05T20:55:51.086Z,101821.44
2023-04-05T21:00:55.059Z,101825.56
2023-04-05T21:05:59.835Z,101817.13
2023-04-05T21:11:05.999Z,101808.69
2023-04-05T21:16:10.356Z,101804.41
2023-04-05T21:21:14.195Z,101803.84
2023-04-05T21:26:19.326Z,101795.81
2023-04-05T21:31:23.187Z,101796.81
2023-04-05T21:36:27.201Z,101790.94
2023-04-05T21:41:32.342Z,101794.03
2023-04-05T21:46:36.458Z,101799.69
2023-04-05T21:51:40.877Z,101803.75
2023-04-05T21:56:46.163Z,101794.53
2023-04-05T22:01:50.013Z,101803.47
2023-04-05T22:06:53.909Z,101799.00
2023-04-05T22:11:59.748Z,101797.19
2023-04-05T22:17:03.982Z,101799.25
2023-04-05T22:22:07.814Z,101788.66
2023-04-05T22:27:13.384Z,101790.81
2023-04-05T22:32:17.184Z,101780.19
2023-04-05T22:37:21.223Z,101782.75
2023-04-05T22:42:26.391Z,101780.00
2023-04-05T22:47:30.237Z,101777.91
2023-04-05T22:52:34.093Z,101780.16
2023-04-05T22:57:39.500Z,101775.00
2023-04-05T23:02:43.600Z,101770.78
2023-04-05T23:07:47.466Z,101767.69
2023-04-05T23:12:52.643Z,101764.16
2023-04-05T23:17:56.685Z,101757.81
2023-04-05T23:23:01.561Z,101744.31
2023-04-05T23:28:07.272Z,101749.97
2023-04-05T23:33:13.105Z,101748.75
2023-04-05T23:38:17.680Z,101736.22
2023-04-05T23:43:22.857Z,101732.72
2023-04-05T23:48:27.256Z,101730.53
2023-04-05T23:53:31.459Z,101714.75
2023-04-05T23:58:36.754Z,101713.03
